TimeCST,TemperatureF,Dew PointF,Humidity,Sea Level PressureIn,VisibilityMPH,Wind Direction,Wind SpeedMPH,Gust SpeedMPH,PrecipitationIn,Events,Conditions,WindDirDegrees,DateUTC
12:15 AM,9.5,4.6,81,30.08,10.0,West,6.9,-,N/A,,Clear,280,2012-12-29 06:15:00
12:35 AM,12.2,6.8,79,30.08,10.0,West,8.1,-,N/A,,Mostly Cloudy,280,2012-12-29 06:35:00
12:55 AM,12.9,7.2,78,30.08,10.0,WNW,9.2,-,N/A,,Overcast,290,2012-12-29 06:55:00
1:15 AM,12.9,7.5,79,30.08,10.0,WNW,6.9,-,N/A,,Overcast,290,2012-12-29 07:15:00
1:35 AM,14.9,9.0,77,30.08,10.0,WNW,9.2,-,N/A,,Overcast,300,2012-12-29 07:35:00
1:55 AM,15.6,9.7,77,30.08,10.0,WNW,8.1,-,N/A,,Mostly Cloudy,300,2012-12-29 07:55:00
2:15 AM,14.5,9.1,79,30.09,10.0,WNW,8.1,-,N/A,,Scattered Clouds,300,2012-12-29 08:15:00
2:35 AM,12.2,7.0,80,30.10,10.0,West,10.4,-,N/A,,Clear,280,2012-12-29 08:35:00
2:55 AM,12.7,8.1,82,30.10,10.0,West,8.1,-,N/A,,Clear,270,2012-12-29 08:55:00
3:15 AM,12.0,6.8,80,30.11,10.0,West,8.1,-,N/A,,Clear,280,2012-12-29 09:15:00
3:35 AM,13.1,7.7,79,30.12,10.0,West,9.2,-,N/A,,Clear,280,2012-12-29 09:35:00
3:55 AM,11.7,6.4,80,30.12,10.0,West,9.2,-,N/A,,Clear,280,2012-12-29 09:55:00
4:15 AM,11.3,6.3,80,30.12,10.0,West,6.9,-,N/A,,Clear,280,2012-12-29 10:15:00
4:35 AM,11.7,6.8,81,30.13,10.0,WNW,8.1,-,N/A,,Clear,290,2012-12-29 10:35:00
4:55 AM,11.8,6.8,80,30.12,10.0,West,6.9,-,N/A,,Clear,280,2012-12-29 10:55:00
5:15 AM,10.4,5.7,81,30.13,10.0,West,6.9,-,N/A,,Clear,280,2012-12-29 11:15:00
5:35 AM,11.5,7.3,83,30.13,10.0,WNW,6.9,-,N/A,,Clear,290,2012-12-29 11:35:00
5:55 AM,12.2,7.9,83,30.14,10.0,West,9.2,-,N/A,,Clear,280,2012-12-29 11:55:00
6:15 AM,14.0,9.5,82,30.15,10.0,West,9.2,-,N/A,,Clear,280,2012-12-29 12:15:00
6:35 AM,14.0,9.1,81,30.15,10.0,West,9.2,-,N/A,,Clear,270,2012-12-29 12:35:00
6:55 AM,15.4,10.9,82,30.15,10.0,West,9.2,-,N/A,,Clear,280,2012-12-29 12:55:00
7:15 AM,14.5,9.9,82,30.16,10.0,WNW,9.2,-,N/A,,Clear,290,2012-12-29 13:15:00
7:35 AM,12.6,8.8,85,30.16,10.0,WNW,8.1,-,N/A,,Clear,300,2012-12-29 13:35:00
7:55 AM,13.1,8.8,83,30.17,10.0,WNW,9.2,-,N/A,,Clear,300,2012-12-29 13:55:00
8:15 AM,14.0,8.8,80,30.17,10.0,WNW,5.8,-,N/A,,Clear,290,2012-12-29 14:15:00
8:35 AM,13.1,8.4,82,30.17,10.0,West,6.9,-,N/A,,Clear,270,2012-12-29 14:35:00
8:55 AM,14.7,10.2,82,30.19,10.0,West,9.2,-,N/A,,Clear,270,2012-12-29 14:55:00
9:15 AM,15.6,10.4,80,30.18,10.0,West,6.9,-,N/A,,Clear,270,2012-12-29 15:15:00
9:35 AM,16.9,11.3,79,30.19,10.0,West,6.9,-,N/A,,Clear,280,2012-12-29 15:35:00
9:55 AM,18.0,11.3,75,30.19,10.0,West,6.9,-,N/A,,Clear,280,2012-12-29 15:55:00
10:15 AM,19.0,12.2,75,30.20,10.0,West,8.1,-,N/A,,Clear,270,2012-12-29 16:15:00
10:35 AM,20.7,13.3,73,30.21,10.0,West,10.4,-,N/A,,Clear,260,2012-12-29 16:35:00
10:55 AM,20.3,13.1,74,30.22,10.0,West,9.2,-,N/A,,Clear,270,2012-12-29 16:55:00
11:15 AM,21.9,14.0,72,30.22,10.0,West,10.4,-,N/A,,Clear,260,2012-12-29 17:15:00
11:35 AM,23.7,14.9,69,30.21,10.0,West,8.1,-,N/A,,Clear,270,2012-12-29 17:35:00
11:55 AM,25.5,15.8,67,30.20,10.0,West,8.1,-,N/A,,Clear,260,2012-12-29 17:55:00
12:15 PM,26.2,16.0,65,30.20,10.0,West,10.4,-,N/A,,Clear,260,2012-12-29 18:15:00
12:55 PM,26.4,16.3,66,30.19,10.0,West,8.1,-,N/A,,Clear,260,2012-12-29 18:55:00
1:15 PM,27.1,16.5,64,30.18,10.0,West,11.5,-,N/A,,Clear,260,2012-12-29 19:15:00
1:35 PM,27.9,17.4,65,30.17,10.0,WSW,10.4,-,N/A,,Clear,250,2012-12-29 19:35:00
1:55 PM,28.8,17.8,64,30.17,10.0,West,10.4,-,N/A,,Clear,260,2012-12-29 19:55:00
2:15 PM,30.0,18.3,62,30.16,10.0,West,11.5,-,N/A,,Clear,270,2012-12-29 20:15:00
2:35 PM,30.9,18.9,61,30.16,10.0,WSW,8.1,-,N/A,,Clear,250,2012-12-29 20:35:00
2:55 PM,30.6,19.0,62,30.17,10.0,WSW,9.2,-,N/A,,Clear,250,2012-12-29 20:55:00
3:15 PM,30.2,18.9,63,30.16,10.0,West,11.5,-,N/A,,Clear,260,2012-12-29 21:15:00
3:35 PM,29.3,18.5,64,30.18,10.0,WSW,10.4,-,N/A,,Clear,250,2012-12-29 21:35:00
3:55 PM,29.3,18.7,65,30.17,10.0,SW,6.9,-,N/A,,Clear,220,2012-12-29 21:55:00
4:15 PM,28.4,18.5,66,30.17,10.0,West,8.1,-,N/A,,Clear,260,2012-12-29 22:15:00
4:35 PM,28.0,18.3,67,30.17,10.0,WSW,8.1,-,N/A,,Clear,250,2012-12-29 22:35:00
4:55 PM,26.6,17.6,69,30.18,10.0,WSW,6.9,-,N/A,,Clear,240,2012-12-29 22:55:00
5:15 PM,25.2,16.9,71,30.18,10.0,SW,5.8,-,N/A,,Clear,220,2012-12-29 23:15:00
5:35 PM,23.4,16.2,74,30.17,10.0,WSW,5.8,-,N/A,,Clear,240,2012-12-29 23:35:00
5:55 PM,23.4,16.2,74,30.17,10.0,SW,8.1,-,N/A,,Clear,230,2012-12-29 23:55:00
6:15 PM,22.6,15.4,74,30.18,10.0,SW,3.5,-,N/A,,Clear,230,2012-12-30 00:15:00
6:35 PM,21.9,14.9,74,30.18,10.0,Calm,Calm,-,N/A,,Clear,0,2012-12-30 00:35:00
6:55 PM,22.5,15.3,74,30.19,10.0,SW,9.2,-,N/A,,Clear,230,2012-12-30 00:55:00
7:15 PM,20.3,13.8,76,30.18,10.0,SW,6.9,-,N/A,,Clear,220,2012-12-30 01:15:00
7:35 PM,19.4,13.5,78,30.19,10.0,SW,5.8,-,N/A,,Clear,230,2012-12-30 01:35:00
7:55 PM,20.7,13.8,75,30.18,10.0,SW,6.9,-,N/A,,Clear,230,2012-12-30 01:55:00
8:15 PM,20.7,13.8,75,30.17,10.0,WSW,3.5,-,N/A,,Clear,240,2012-12-30 02:15:00
8:35 PM,20.8,13.6,74,30.17,10.0,SW,3.5,-,N/A,,Clear,230,2012-12-30 02:35:00
8:55 PM,20.8,13.5,73,30.16,10.0,Calm,Calm,-,N/A,,Clear,0,2012-12-30 02:55:00
9:15 PM,21.4,12.7,69,30.16,10.0,SW,5.8,-,N/A,,Scattered Clouds,220,2012-12-30 03:15:00
9:35 PM,18.0,10.6,73,30.15,10.0,South,4.6,-,N/A,,Clear,190,2012-12-30 03:35:00
9:55 PM,16.9,10.4,76,30.15,10.0,South,8.1,-,N/A,,Clear,190,2012-12-30 03:55:00
10:15 PM,19.6,12.2,73,30.15,10.0,SSW,8.1,-,N/A,,Clear,200,2012-12-30 04:15:00
10:35 PM,20.3,12.4,71,30.15,10.0,SSW,8.1,-,N/A,,Clear,210,2012-12-30 04:35:00
10:55 PM,21.0,12.9,71,30.16,10.0,SSW,8.1,-,N/A,,Clear,210,2012-12-30 04:55:00
11:15 PM,21.2,13.1,71,30.16,10.0,SSW,9.2,-,N/A,,Clear,200,2012-12-30 05:15:00
11:35 PM,21.7,13.3,70,30.16,10.0,SSW,8.1,-,N/A,,Clear,200,2012-12-30 05:35:00